Time;durP1;ratioP1;P1;durP2;ratioP2;P2;SDS_P1;SDS_P2;PMS_P1;PMS_P2;Temp;Humidity;BMP_temperature;BMP_pressure;BME280_temperature;BME280_humidity;BME280_pressure;Samples;Min_cycle;Max_cycle;Signal;HPM_P1;HPM_P2
2021/12/12 00:01:54;;;;;;;2.28;2.08;;;22.20;44.80;;;;;;5073500;28;20170;-70
2021/12/12 00:04:32;;;;;;;2.25;2.05;;;22.20;44.80;;;;;;5073655;28;20322;-70
2021/12/12 00:07:02;;;;;;;2.05;1.73;;;22.20;44.80;;;;;;5074878;28;20197;-70
2021/12/12 00:09:44;;;;;;;1.98;1.88;;;22.20;44.80;;;;;;5056810;28;20174;-70
2021/12/12 00:12:27;;;;;;;2.13;1.83;;;22.20;44.80;;;;;;5073823;28;20195;-70
2021/12/12 00:14:54;;;;;;;2.13;1.85;;;22.10;44.80;;;;;;5056734;28;20178;-71
2021/12/12 00:17:23;;;;;;;2.00;1.90;;;22.20;44.80;;;;;;5108386;22;20716;-69
2021/12/12 00:19:51;;;;;;;1.80;1.70;;;22.20;44.80;;;;;;5056177;28;20240;-67
2021/12/12 00:22:23;;;;;;;2.22;1.85;;;22.10;44.70;;;;;;5056570;28;20185;-67
2021/12/12 00:24:50;;;;;;;1.80;1.60;;;22.20;44.80;;;;;;5039978;28;20232;-67
2021/12/12 00:27:21;;;;;;;1.83;1.73;;;22.20;44.80;;;;;;5074310;28;20190;-67
2021/12/12 00:29:47;;;;;;;2.05;1.95;;;22.20;44.80;;;;;;5073108;28;20216;-67
2021/12/12 00:32:17;;;;;;;1.95;1.85;;;22.20;44.70;;;;;;5073116;28;20246;-67
2021/12/12 00:34:57;;;;;;;1.70;1.60;;;22.20;44.80;;;;;;5073009;28;20197;-69
2021/12/12 00:37:23;;;;;;;2.08;1.85;;;22.10;44.60;;;;;;5056325;28;20205;-69
2021/12/12 00:39:57;;;;;;;1.65;1.55;;;22.20;44.70;;;;;;5073107;28;20242;-69
2021/12/12 00:42:27;;;;;;;2.55;1.70;;;22.20;44.70;;;;;;5072924;28;20182;-69
2021/12/12 00:44:58;;;;;;;1.85;1.60;;;22.20;44.70;;;;;;5072894;28;20211;-69
2021/12/12 00:47:26;;;;;;;2.28;1.83;;;22.10;44.70;;;;;;5072038;28;20206;-69
2021/12/12 00:49:53;;;;;;;1.85;1.75;;;22.10;44.60;;;;;;5072454;28;20580;-69
2021/12/12 00:52:21;;;;;;;1.63;1.50;;;22.10;44.60;;;;;;5072585;28;20243;-69
2021/12/12 00:54:50;;;;;;;1.85;1.75;;;22.20;44.70;;;;;;5072543;28;20205;-69
2021/12/12 00:57:20;;;;;;;2.25;2.08;;;22.20;44.70;;;;;;5072890;28;20205;-69
2021/12/12 00:59:47;;;;;;;2.15;1.88;;;22.10;44.50;;;;;;5055539;28;20216;-69
2021/12/12 01:02:26;;;;;;;2.40;1.80;;;22.10;44.60;;;;;;5089442;28;20188;-69
2021/12/12 01:04:56;;;;;;;1.90;1.70;;;22.20;44.60;;;;;;5089653;28;20215;-69
2021/12/12 01:07:30;;;;;;;2.08;1.63;;;22.10;44.60;;;;;;5072501;28;20206;-69
2021/12/12 01:10:09;;;;;;;1.65;1.55;;;22.10;44.50;;;;;;5072499;28;20242;-69
2021/12/12 01:12:36;;;;;;;1.90;1.65;;;22.10;44.60;;;;;;5072291;28;20173;-69
2021/12/12 01:15:27;;;;;;;1.83;1.67;;;22.10;44.60;;;;;;5054548;28;20263;-69
2021/12/12 01:18:03;;;;;;;1.70;1.60;;;22.10;44.60;;;;;;5079523;28;20218;-69
2021/12/12 01:20:43;;;;;;;1.50;1.40;;;22.10;44.60;;;;;;5072105;28;20247;-69
2021/12/12 01:23:18;;;;;;;1.85;1.75;;;22.20;44.60;;;;;;5072136;28;20213;-69
2021/12/12 01:25:47;;;;;;;1.75;1.65;;;22.20;45.30;;;;;;5089043;28;20177;-69
2021/12/12 01:28:20;;;;;;;1.75;1.65;;;22.10;44.50;;;;;;5072043;28;20201;-69
2021/12/12 01:30:48;;;;;;;1.77;1.65;;;22.10;44.50;;;;;;5071993;28;20174;-69
2021/12/12 01:33:26;;;;;;;1.60;1.50;;;22.10;44.50;;;;;;5072952;28;20189;-69
2021/12/12 01:35:52;;;;;;;1.50;1.40;;;22.10;44.60;;;;;;5071915;28;20190;-69
2021/12/12 01:41:03;;;;;;;1.58;1.48;;;22.10;44.60;;;;;;5073017;28;20193;-69
2021/12/12 01:43:40;;;;;;;1.80;1.70;;;22.10;44.50;;;;;;5071647;28;20206;-69
2021/12/12 01:46:13;;;;;;;1.80;1.40;;;22.10;44.60;;;;;;5058264;28;20681;-68
2021/12/12 01:49:12;;;;;;;1.42;1.33;;;22.10;44.60;;;;;;5055116;28;20186;-69
2021/12/12 01:51:39;;;;;;;1.60;1.50;;;22.10;44.50;;;;;;5088632;28;20170;-69
2021/12/12 01:54:13;;;;;;;1.85;1.50;;;22.20;44.50;;;;;;5088542;28;20189;-68
2021/12/12 01:56:53;;;;;;;1.40;1.30;;;22.20;44.60;;;;;;5071414;28;20255;-69
2021/12/12 01:59:24;;;;;;;1.38;1.27;;;22.10;44.50;;;;;;5088278;28;20173;-69
2021/12/12 02:02:23;;;;;;;1.42;1.33;;;22.10;44.50;;;;;;5088226;28;20177;-69
2021/12/12 02:05:02;;;;;;;1.55;1.45;;;22.10;44.60;;;;;;5088335;28;20201;-69
2021/12/12 02:07:34;;;;;;;1.35;1.25;;;22.10;44.50;;;;;;5070933;28;20208;-69
2021/12/12 02:10:08;;;;;;;1.55;1.45;;;22.10;44.50;;;;;;5071466;28;20170;-69
2021/12/12 02:12:35;;;;;;;1.50;1.40;;;22.10;44.50;;;;;;5088294;28;20239;-69
2021/12/12 02:15:02;;;;;;;1.40;1.30;;;22.10;44.50;;;;;;5068044;28;20197;-69
2021/12/12 02:17:39;;;;;;;1.55;1.45;;;22.10;44.50;;;;;;5054365;28;20216;-69
2021/12/12 02:20:41;;;;;;;1.30;1.20;;;22.10;44.50;;;;;;5071325;28;20174;-69
2021/12/12 02:36:54;;;;;;;1.30;1.20;;;22.20;44.50;;;;;;5071047;28;20552;-69
2021/12/12 02:39:20;;;;;;;1.45;1.30;;;22.20;44.60;;;;;;5070906;28;20643;-68
2021/12/12 02:41:52;;;;;;;1.45;1.35;;;22.10;44.60;;;;;;5070980;28;20272;-69
2021/12/12 02:44:21;;;;;;;1.55;1.33;;;22.20;44.60;;;;;;5070876;28;20206;-69
2021/12/12 02:46:50;;;;;;;1.15;1.10;;;22.10;44.50;;;;;;5071665;28;20208;-69
2021/12/12 02:50:09;;;;;;;1.35;1.25;;;22.10;44.50;;;;;;5070703;28;20207;-69
2021/12/12 02:52:11;;;;;;;1.45;1.35;;;22.10;44.50;;;;;;5067637;28;20209;-69
2021/12/12 02:54:37;;;;;;;1.75;1.45;;;22.10;44.50;;;;;;5071065;28;20174;-69
2021/12/12 02:57:04;;;;;;;1.55;1.45;;;22.10;44.50;;;;;;5087979;28;20233;-69
2021/12/12 02:59:32;;;;;;;1.38;1.27;;;22.20;44.60;;;;;;5070652;28;20186;-69
2021/12/12 03:02:06;;;;;;;1.40;1.30;;;22.10;44.50;;;;;;5071781;28;20186;-69
2021/12/12 03:04:33;;;;;;;1.38;1.27;;;22.20;44.50;;;;;;5072334;28;20220;-69
2021/12/12 03:07:00;;;;;;;1.08;1.08;;;22.10;44.50;;;;;;5070517;28;20206;-69
2021/12/12 03:09:47;;;;;;;1.17;1.10;;;22.10;44.50;;;;;;5053782;28;20185;-69
2021/12/12 03:12:30;;;;;;;1.17;1.17;;;22.10;44.50;;;;;;5071754;28;20182;-69
2021/12/12 03:15:00;;;;;;;1.23;1.13;;;22.10;44.50;;;;;;5087537;28;20637;-69
2021/12/12 03:17:26;;;;;;;1.20;1.10;;;22.20;44.60;;;;;;5071458;28;20227;-68
2021/12/12 03:20:01;;;;;;;1.65;1.20;;;22.10;44.50;;;;;;5070236;28;20181;-69
2021/12/12 03:22:28;;;;;;;1.40;1.30;;;22.10;44.50;;;;;;5053636;28;20181;-69
2021/12/12 03:24:55;;;;;;;1.55;1.25;;;22.10;44.50;;;;;;5062603;28;20184;-69
2021/12/12 03:27:23;;;;;;;1.35;1.30;;;22.10;44.50;;;;;;5070452;28;20278;-68
2021/12/12 03:29:51;;;;;;;1.20;1.10;;;22.10;44.50;;;;;;5070787;28;20299;-69
2021/12/12 03:32:22;;;;;;;1.33;1.20;;;22.10;44.50;;;;;;5070425;28;20189;-69
2021/12/12 03:34:54;;;;;;;1.10;1.10;;;22.10;44.40;;;;;;5087399;28;20182;-69
2021/12/12 03:37:27;;;;;;;1.30;1.17;;;22.10;45.00;;;;;;5071923;28;20292;-69
2021/12/12 03:39:57;;;;;;;1.05;1.00;;;22.10;44.50;;;;;;5091406;28;20224;-69
2021/12/12 03:42:27;;;;;;;1.00;1.00;;;22.10;44.50;;;;;;5074229;28;20174;-69
2021/12/12 03:44:55;;;;;;;1.35;1.25;;;22.20;44.50;;;;;;5054864;28;20221;-69
2021/12/12 03:47:34;;;;;;;1.30;1.20;;;22.10;44.50;;;;;;5056761;28;20319;-67
2021/12/12 03:50:09;;;;;;;1.67;1.10;;;22.10;44.50;;;;;;5074178;28;20201;-69
2021/12/12 03:52:34;;;;;;;1.10;1.00;;;22.20;44.50;;;;;;5090610;28;20196;-69
2021/12/12 03:55:01;;;;;;;1.10;1.00;;;22.10;44.40;;;;;;5073907;28;20174;-69
2021/12/12 03:57:29;;;;;;;0.90;0.90;;;22.10;44.40;;;;;;5073537;28;20267;-71
2021/12/12 03:59:55;;;;;;;1.33;1.23;;;22.10;44.40;;;;;;5074240;28;20229;-69
2021/12/12 04:02:21;;;;;;;1.30;1.25;;;22.20;44.50;;;;;;5090479;28;20221;-69
2021/12/12 04:04:49;;;;;;;0.90;0.90;;;22.10;44.40;;;;;;5074914;28;20209;-69
2021/12/12 04:07:27;;;;;;;1.23;1.10;;;22.10;44.40;;;;;;5073546;28;20228;-69
2021/12/12 04:09:55;;;;;;;1.20;1.10;;;22.10;44.40;;;;;;5074950;28;20166;-69
2021/12/12 04:12:22;;;;;;;1.40;1.10;;;22.10;44.40;;;;;;5074979;28;20186;-69
2021/12/12 04:14:50;;;;;;;1.30;1.20;;;22.20;44.50;;;;;;5056858;28;20220;-69
2021/12/12 04:17:22;;;;;;;1.23;1.13;;;22.20;44.40;;;;;;5081449;28;20217;-69
2021/12/12 04:19:53;;;;;;;1.00;1.00;;;22.10;44.50;;;;;;5073561;28;20216;-69
2021/12/12 04:22:20;;;;;;;1.00;1.00;;;22.20;44.50;;;;;;5073550;28;20261;-69
2021/12/12 04:24:52;;;;;;;1.10;1.00;;;22.10;44.40;;;;;;5073225;28;20217;-69
2021/12/12 04:27:21;;;;;;;1.00;1.00;;;22.10;44.40;;;;;;5073274;28;20743;-69
2021/12/12 04:29:50;;;;;;;1.30;1.20;;;22.20;44.50;;;;;;5089865;28;20197;-69
2021/12/12 04:32:27;;;;;;;1.40;1.30;;;22.10;44.40;;;;;;5072964;28;20215;-69
2021/12/12 04:35:01;;;;;;;0.95;0.95;;;22.10;44.40;;;;;;5056826;28;20245;-69
2021/12/12 04:37:28;;;;;;;1.40;1.30;;;22.20;44.50;;;;;;5089752;28;20212;-68
2021/12/12 04:39:57;;;;;;;1.33;1.23;;;22.10;44.20;;;;;;5056406;28;20196;-69
2021/12/12 04:42:31;;;;;;;1.20;1.10;;;22.10;44.30;;;;;;5073256;28;20204;-69
2021/12/12 04:45:39;;;;;;;1.00;1.00;;;22.10;44.40;;;;;;5074131;28;20185;-69
2021/12/12 04:51:49;;;;;;;1.05;1.00;;;22.10;44.40;;;;;;5065113;28;20279;-69
2021/12/12 04:54:48;;;;;;;0.90;0.90;;;22.10;44.30;;;;;;5072758;28;20614;-69
2021/12/12 04:57:27;;;;;;;0.90;0.90;;;22.10;44.40;;;;;;5072823;28;20205;-70
2021/12/12 05:00:11;;;;;;;0.98;0.98;;;22.20;44.40;;;;;;5072900;28;20249;-69
2021/12/12 05:02:54;;;;;;;1.30;1.20;;;22.10;44.40;;;;;;5072520;28;20194;-69
2021/12/12 05:06:01;;;;;;;1.25;1.20;;;22.10;44.40;;;;;;5089572;28;20170;-69
2021/12/12 05:08:39;;;;;;;0.80;0.80;;;22.10;44.30;;;;;;5088802;28;20218;-69
2021/12/12 05:11:13;;;;;;;1.00;1.00;;;22.10;44.40;;;;;;5072438;28;20174;-69
2021/12/12 05:13:52;;;;;;;0.95;0.88;;;22.10;44.40;;;;;;5072473;28;20169;-69
2021/12/12 05:16:33;;;;;;;1.00;1.00;;;22.10;44.30;;;;;;5068722;28;20182;-69
2021/12/12 05:19:09;;;;;;;0.90;0.90;;;22.20;44.40;;;;;;5072021;28;20702;-69
2021/12/12 05:21:43;;;;;;;1.10;1.00;;;22.10;44.20;;;;;;5072571;28;20227;-69
2021/12/12 05:24:12;;;;;;;0.88;0.88;;;22.10;44.30;;;;;;5089216;28;20214;-69
2021/12/12 05:26:52;;;;;;;1.08;1.08;;;22.10;44.30;;;;;;5072031;28;20204;-68
2021/12/12 05:29:33;;;;;;;1.15;1.10;;;22.10;44.30;;;;;;5089009;28;20170;-69
2021/12/12 05:32:03;;;;;;;0.82;0.82;;;22.10;44.40;;;;;;5072025;28;20178;-69
2021/12/12 05:34:35;;;;;;;0.90;0.90;;;22.10;44.30;;;;;;5072318;28;20193;-69
2021/12/12 05:37:03;;;;;;;1.20;1.10;;;22.10;44.30;;;;;;5055279;28;20270;-69
2021/12/12 05:39:31;;;;;;;0.82;0.82;;;22.10;44.20;;;;;;5088536;28;20185;-69
2021/12/12 05:41:57;;;;;;;1.30;1.20;;;22.10;44.20;;;;;;5088799;28;20182;-69
2021/12/12 05:44:27;;;;;;;0.93;0.90;;;22.10;44.20;;;;;;5071563;28;20275;-69
2021/12/12 05:47:00;;;;;;;1.25;1.10;;;22.10;44.20;;;;;;5071271;28;20205;-69
2021/12/12 05:49:26;;;;;;;1.27;1.17;;;22.10;44.20;;;;;;5054749;28;20564;-69
2021/12/12 05:51:52;;;;;;;1.40;1.30;;;22.00;44.10;;;;;;5071648;28;20632;-69
2021/12/12 05:54:18;;;;;;;1.52;1.42;;;22.10;44.10;;;;;;5071422;28;20193;-69
2021/12/12 05:56:46;;;;;;;1.67;1.58;;;22.10;44.20;;;;;;5071512;28;20351;-68
2021/12/12 05:59:13;;;;;;;1.20;1.20;;;22.10;44.10;;;;;;5071614;28;20182;-69
2021/12/12 06:01:40;;;;;;;1.30;1.20;;;22.10;44.10;;;;;;5071427;28;20268;-69
2021/12/12 06:04:07;;;;;;;1.40;1.30;;;22.00;43.90;;;;;;5071348;28;20210;-69
2021/12/12 06:06:40;;;;;;;1.23;1.13;;;22.00;44.00;;;;;;5071303;28;20209;-69
2021/12/12 06:09:10;;;;;;;1.08;1.00;;;22.10;44.10;;;;;;5070489;28;20208;-69
2021/12/12 06:11:50;;;;;;;1.30;1.20;;;22.00;44.10;;;;;;5071258;28;20200;-69
2021/12/12 06:14:18;;;;;;;1.23;1.20;;;22.00;44.00;;;;;;5071654;28;20186;-69
2021/12/12 06:16:45;;;;;;;1.30;1.20;;;22.10;44.10;;;;;;5070954;28;20689;-69
2021/12/12 06:19:18;;;;;;;1.23;1.08;;;22.10;44.20;;;;;;5071074;28;20169;-69
2021/12/12 06:21:48;;;;;;;1.05;1.05;;;22.00;44.00;;;;;;5073756;28;20194;-69
2021/12/12 06:24:14;;;;;;;1.35;1.25;;;22.10;44.10;;;;;;5054165;28;20700;-69
2021/12/12 06:26:42;;;;;;;1.38;1.27;;;22.00;43.90;;;;;;5071083;28;20194;-70
2021/12/12 06:29:08;;;;;;;1.27;1.20;;;22.00;43.90;;;;;;5054311;28;20219;-69
2021/12/12 06:31:42;;;;;;;0.98;0.98;;;22.10;43.90;;;;;;5071218;28;20178;-69
2021/12/12 06:34:09;;;;;;;1.50;1.40;;;22.10;44.00;;;;;;5088100;28;20182;-69
2021/12/12 06:36:37;;;;;;;1.30;1.20;;;22.00;43.70;;;;;;5072276;28;20237;-69
2021/12/12 06:39:08;;;;;;;1.27;1.20;;;22.00;43.90;;;;;;5070887;28;20178;-69
2021/12/12 06:41:36;;;;;;;1.10;1.10;;;22.00;43.80;;;;;;5054338;28;20640;-69
2021/12/12 06:44:10;;;;;;;1.00;1.00;;;22.00;43.90;;;;;;5070921;28;20202;-69
2021/12/12 06:46:40;;;;;;;1.10;1.00;;;22.00;43.90;;;;;;5070716;28;20209;-69
2021/12/12 06:49:10;;;;;;;1.33;1.10;;;22.00;43.90;;;;;;5054162;28;20182;-69
2021/12/12 06:51:42;;;;;;;1.20;1.15;;;22.00;43.90;;;;;;5087809;28;20166;-69
2021/12/12 06:54:08;;;;;;;1.15;1.13;;;22.00;43.90;;;;;;5071162;28;20304;-69
2021/12/12 06:56:36;;;;;;;0.90;0.90;;;22.00;43.90;;;;;;5084262;28;20202;-69
2021/12/12 06:59:04;;;;;;;0.95;0.95;;;22.00;43.90;;;;;;5067261;28;20261;-69
2021/12/12 07:01:32;;;;;;;1.17;1.08;;;22.10;44.00;;;;;;5050653;28;20551;-68
2021/12/12 07:04:02;;;;;;;1.20;1.10;;;22.10;44.00;;;;;;5051046;28;20222;-69
2021/12/12 07:06:30;;;;;;;1.05;0.95;;;22.00;43.80;;;;;;5033989;28;20198;-69
2021/12/12 07:09:06;;;;;;;1.20;1.20;;;22.00;43.80;;;;;;5057779;28;20181;-69
2021/12/12 07:11:34;;;;;;;1.48;1.38;;;22.10;44.00;;;;;;5072033;28;20201;-69
2021/12/12 07:14:01;;;;;;;1.30;1.20;;;22.00;43.70;;;;;;5074403;28;20186;-69
2021/12/12 07:16:28;;;;;;;1.50;1.40;;;22.00;43.80;;;;;;5071961;28;22155;-68
2021/12/12 07:18:55;;;;;;;1.05;1.05;;;22.00;43.80;;;;;;5056712;28;20174;-69
2021/12/12 07:21:23;;;;;;;1.50;1.08;;;22.00;43.80;;;;;;5075808;28;20234;-69
2021/12/12 07:23:50;;;;;;;1.00;1.00;;;22.00;43.90;;;;;;5074196;28;20209;-69
2021/12/12 07:26:19;;;;;;;1.00;1.00;;;22.00;43.90;;;;;;5073936;28;20189;-69
2021/12/12 07:28:45;;;;;;;0.82;0.82;;;22.00;43.90;;;;;;5074041;28;20265;-69
2021/12/12 07:31:17;;;;;;;1.10;1.10;;;22.00;43.80;;;;;;5074059;28;20181;-69
2021/12/12 07:33:45;;;;;;;0.93;0.93;;;22.10;44.00;;;;;;5085210;28;20194;-69
2021/12/12 07:36:12;;;;;;;1.13;1.13;;;22.00;43.90;;;;;;5071482;28;20239;-69
2021/12/12 07:38:45;;;;;;;1.00;1.00;;;22.00;43.90;;;;;;5073975;28;20201;-69
2021/12/12 07:41:12;;;;;;;1.05;1.05;;;22.00;43.90;;;;;;5073866;28;20224;-70
2021/12/12 07:43:39;;;;;;;1.10;1.10;;;22.10;43.90;;;;;;5073900;28;20237;-69
2021/12/12 07:46:07;;;;;;;1.10;1.10;;;22.00;43.80;;;;;;5074982;28;20189;-69
2021/12/12 07:48:35;;;;;;;1.17;1.10;;;22.00;43.80;;;;;;5074185;28;20215;-69
2021/12/12 07:51:03;;;;;;;1.40;1.30;;;22.00;43.80;;;;;;5073941;28;20181;-69
2021/12/12 07:53:29;;;;;;;1.33;1.25;;;22.10;43.90;;;;;;5074321;28;20186;-69
2021/12/12 07:55:57;;;;;;;1.50;1.40;;;22.00;43.80;;;;;;5073581;28;20189;-69
2021/12/12 07:58:25;;;;;;;1.67;1.40;;;22.00;43.80;;;;;;5087110;28;20215;-69
2021/12/12 08:00:58;;;;;;;1.30;1.20;;;22.00;43.70;;;;;;5053498;28;20193;-69
2021/12/12 08:03:30;;;;;;;1.20;1.08;;;22.00;43.70;;;;;;5053760;28;20195;-69
2021/12/12 08:05:59;;;;;;;1.02;1.02;;;22.00;43.70;;;;;;5037288;28;20193;-69
2021/12/12 08:08:27;;;;;;;1.10;1.10;;;22.00;43.70;;;;;;5053313;28;20198;-69
2021/12/12 08:10:56;;;;;;;1.10;1.00;;;22.00;43.80;;;;;;5053540;28;20206;-69
2021/12/12 08:13:22;;;;;;;1.10;1.00;;;22.00;43.90;;;;;;5054751;28;20183;-69
2021/12/12 08:15:49;;;;;;;1.98;1.20;;;22.00;43.80;;;;;;5053440;28;20190;-72
2021/12/12 08:18:18;;;;;;;1.10;1.10;;;22.00;43.80;;;;;;5053266;28;20244;-69
2021/12/12 08:20:52;;;;;;;1.20;1.20;;;22.00;43.80;;;;;;5070284;28;20205;-69
2021/12/12 08:23:20;;;;;;;1.45;1.35;;;22.00;43.80;;;;;;5053486;28;20218;-69
2021/12/12 08:25:50;;;;;;;1.60;1.50;;;22.00;43.70;;;;;;5078460;28;20182;-69
2021/12/12 08:28:19;;;;;;;2.22;2.03;;;22.00;43.60;;;;;;5054708;28;20274;-69
2021/12/12 08:30:45;;;;;;;1.67;1.58;;;22.00;43.60;;;;;;5053441;28;20251;-70
2021/12/12 08:33:12;;;;;;;2.97;2.78;;;22.00;43.60;;;;;;5053007;28;20287;-69
2021/12/12 08:35:42;;;;;;;2.00;1.90;;;22.00;43.70;;;;;;5054294;28;20186;-70
2021/12/12 08:38:10;;;;;;;2.47;2.28;;;22.00;43.60;;;;;;5052861;28;20217;-70
2021/12/12 08:40:47;;;;;;;1.75;1.65;;;22.00;43.50;;;;;;5052876;28;20186;-70
2021/12/12 08:43:16;;;;;;;2.40;2.20;;;22.00;43.60;;;;;;5069650;28;20202;-70
2021/12/12 08:45:52;;;;;;;1.92;1.83;;;22.10;43.80;;;;;;5053166;28;20216;-69
2021/12/12 08:48:22;;;;;;;2.00;1.90;;;22.00;43.70;;;;;;5055061;28;20915;-69
2021/12/12 08:50:54;;;;;;;2.33;2.13;;;22.10;43.80;;;;;;5072733;28;20184;-69
2021/12/12 08:53:22;;;;;;;2.40;2.20;;;22.00;43.70;;;;;;5089771;28;20174;-69
2021/12/12 08:55:51;;;;;;;2.25;2.05;;;22.00;43.70;;;;;;5081265;28;20197;-69
2021/12/12 08:58:25;;;;;;;2.05;1.95;;;22.10;43.80;;;;;;5070436;28;20254;-69
2021/12/12 09:00:58;;;;;;;2.78;2.58;;;22.10;43.80;;;;;;5072596;28;20572;-69
2021/12/12 09:03:41;;;;;;;2.78;2.58;;;22.10;43.70;;;;;;5087296;28;20210;-69
2021/12/12 09:06:10;;;;;;;2.80;2.60;;;22.10;43.80;;;;;;5066331;28;20182;-69
2021/12/12 09:09:00;;;;;;;2.88;2.67;;;22.00;43.50;;;;;;5089173;28;20178;-69
2021/12/12 09:11:42;;;;;;;2.45;2.25;;;22.00;43.70;;;;;;5080880;28;20177;-69
2021/12/12 09:14:32;;;;;;;2.58;2.38;;;22.10;43.80;;;;;;5071762;28;20194;-70
2021/12/12 09:17:30;;;;;;;2.88;2.40;;;22.10;43.80;;;;;;5035523;28;20304;-70
2021/12/12 09:20:12;;;;;;;2.40;2.20;;;22.10;43.70;;;;;;5051917;28;20205;-70
2021/12/12 09:23:00;;;;;;;2.67;2.47;;;22.10;44.40;;;;;;5035586;28;20178;-70
2021/12/12 09:25:43;;;;;;;2.22;2.13;;;22.10;43.70;;;;;;5076936;28;20179;-68
2021/12/12 09:28:44;;;;;;;2.80;2.60;;;22.10;43.80;;;;;;5085817;28;20248;-69
2021/12/12 09:31:16;;;;;;;2.55;2.35;;;22.10;43.80;;;;;;5072023;28;20192;-69
2021/12/12 09:33:56;;;;;;;2.60;2.40;;;22.20;43.90;;;;;;5071987;28;20261;-69
2021/12/12 09:36:50;;;;;;;2.10;2.00;;;22.10;43.80;;;;;;5088078;28;20272;-69
2021/12/12 09:39:41;;;;;;;2.22;2.10;;;22.10;43.80;;;;;;5071357;28;20182;-69
2021/12/12 09:42:19;;;;;;;2.25;1.80;;;22.10;43.80;;;;;;5071848;28;20190;-69
2021/12/12 09:45:30;;;;;;;2.00;1.90;;;22.20;43.90;;;;;;5071343;28;20684;-70
2021/12/12 09:51:19;;;;;;;2.00;1.90;;;22.10;43.80;;;;;;5054847;28;20197;-69
2021/12/12 09:54:05;;;;;;;2.45;2.17;;;22.20;43.90;;;;;;5051873;28;20209;-69
2021/12/12 09:56:50;;;;;;;1.98;1.88;;;22.10;43.80;;;;;;5071501;28;20197;-69
2021/12/12 09:59:43;;;;;;;2.42;2.22;;;22.10;43.90;;;;;;5088103;28;20209;-70
2021/12/12 10:02:49;;;;;;;2.08;1.95;;;22.20;43.90;;;;;;5071255;28;20637;-69
2021/12/12 10:05:33;;;;;;;2.80;1.90;;;22.20;43.90;;;;;;5070784;28;20193;-69
2021/12/12 10:08:10;;;;;;;1.75;1.65;;;22.20;44.00;;;;;;5072282;28;20201;-69
2021/12/12 10:11:07;;;;;;;1.90;1.80;;;22.20;44.00;;;;;;5071062;28;20190;-69
2021/12/12 10:13:44;;;;;;;1.70;1.60;;;22.20;44.00;;;;;;5072514;28;20182;-69
2021/12/12 10:16:24;;;;;;;2.05;1.85;;;22.10;43.90;;;;;;5071297;28;20178;-72
2021/12/12 10:19:04;;;;;;;1.85;1.75;;;22.20;44.00;;;;;;5071056;28;20170;-70
2021/12/12 10:22:13;;;;;;;2.13;1.63;;;22.20;44.00;;;;;;5071038;28;20173;-70
2021/12/12 10:25:13;;;;;;;1.52;1.27;;;22.20;44.00;;;;;;5041018;28;20777;-69
2021/12/12 10:28:11;;;;;;;2.17;1.70;;;22.20;44.00;;;;;;5086923;28;20300;-69
2021/12/12 10:31:05;;;;;;;1.75;1.65;;;22.20;44.00;;;;;;5071432;28;20268;-69
2021/12/12 10:34:14;;;;;;;1.40;1.30;;;22.20;44.00;;;;;;5063319;28;20225;-69
2021/12/12 10:36:52;;;;;;;1.70;1.60;;;22.20;44.00;;;;;;5027103;28;20222;-70
2021/12/12 10:39:31;;;;;;;1.80;1.70;;;22.30;44.00;;;;;;5067623;28;20229;-69
2021/12/12 10:42:32;;;;;;;1.80;1.70;;;22.20;44.50;;;;;;5067737;28;20178;-69
2021/12/12 10:45:10;;;;;;;1.77;1.67;;;22.20;43.90;;;;;;5066744;28;20230;-70
2021/12/12 10:47:52;;;;;;;1.55;1.42;;;22.30;44.10;;;;;;5075316;28;20216;-69
2021/12/12 10:50:37;;;;;;;1.70;1.60;;;22.30;44.10;;;;;;5076321;28;20257;-69
2021/12/12 10:53:08;;;;;;;2.20;2.00;;;22.20;44.00;;;;;;5085047;28;20194;-70
2021/12/12 10:56:03;;;;;;;2.28;1.75;;;22.30;44.00;;;;;;5075027;28;20645;-70
2021/12/12 10:58:46;;;;;;;1.83;1.70;;;22.30;44.00;;;;;;5070867;28;20232;-69
2021/12/12 11:01:26;;;;;;;1.90;1.80;;;22.20;44.00;;;;;;5064015;28;20194;-69
2021/12/12 11:04:29;;;;;;;2.10;1.70;;;22.20;44.00;;;;;;5053941;28;20214;-70
2021/12/12 11:07:06;;;;;;;1.58;1.48;;;22.30;44.10;;;;;;5088775;28;20254;-69
2021/12/12 11:10:09;;;;;;;1.83;1.60;;;22.30;44.70;;;;;;5064374;28;20178;-69
2021/12/12 11:13:01;;;;;;;1.50;1.40;;;22.30;44.00;;;;;;5064014;28;20185;-69
2021/12/12 11:15:29;;;;;;;1.63;1.52;;;22.30;44.10;;;;;;5082199;28;20243;-69
2021/12/12 11:18:06;;;;;;;2.08;1.88;;;22.30;44.10;;;;;;5065914;28;20222;-69
2021/12/12 11:20:40;;;;;;;2.63;1.77;;;22.30;44.10;;;;;;5051515;28;20181;-70
2021/12/12 11:23:15;;;;;;;1.50;1.40;;;22.30;44.00;;;;;;5071340;28;20583;-69
2021/12/12 11:26:13;;;;;;;1.55;1.45;;;22.30;44.00;;;;;;5065848;28;20552;-69
2021/12/12 11:28:59;;;;;;;1.40;1.30;;;22.30;44.00;;;;;;5080364;28;20190;-70
2021/12/12 11:31:50;;;;;;;1.90;1.60;;;22.30;44.00;;;;;;5046462;28;20232;-68
2021/12/12 11:34:18;;;;;;;1.60;1.50;;;22.30;44.10;;;;;;5073360;28;20545;-69
2021/12/12 11:37:29;;;;;;;1.60;1.50;;;22.30;44.10;;;;;;5089706;28;20209;-69
2021/12/12 11:40:37;;;;;;;1.63;1.52;;;22.30;44.10;;;;;;5084106;28;20188;-70
2021/12/12 11:43:33;;;;;;;1.80;1.45;;;22.30;44.00;;;;;;5056852;28;20237;-69
2021/12/12 11:46:08;;;;;;;2.30;1.70;;;22.30;44.00;;;;;;5065751;28;20182;-69
2021/12/12 11:48:55;;;;;;;2.00;1.77;;;22.30;44.10;;;;;;5056677;28;20264;-70
2021/12/12 11:51:48;;;;;;;1.63;1.50;;;22.30;44.10;;;;;;5065731;28;20170;-69
2021/12/12 11:54:36;;;;;;;2.65;1.60;;;22.30;44.20;;;;;;5068539;28;20195;-69
2021/12/12 11:57:12;;;;;;;2.72;1.88;;;22.30;44.20;;;;;;5065846;28;20217;-69
2021/12/12 11:59:59;;;;;;;1.90;1.70;;;22.30;44.20;;;;;;5053456;28;20183;-69
2021/12/12 12:02:46;;;;;;;1.95;1.40;;;22.30;44.10;;;;;;5073878;28;20251;-69
2021/12/12 12:05:55;;;;;;;1.88;1.77;;;22.30;44.10;;;;;;5065329;28;20201;-69
2021/12/12 12:09:08;;;;;;;1.77;1.67;;;22.30;44.10;;;;;;5056645;28;20213;-69
2021/12/12 12:12:13;;;;;;;1.70;1.60;;;22.30;44.20;;;;;;5073807;28;20173;-70
2021/12/12 12:15:03;;;;;;;1.60;1.40;;;22.30;44.20;;;;;;5073023;28;20185;-70
2021/12/12 12:18:16;;;;;;;1.95;1.80;;;22.30;44.20;;;;;;5072262;28;20259;-69
2021/12/12 12:21:14;;;;;;;1.65;1.55;;;22.30;44.20;;;;;;5073161;28;20186;-69
2021/12/12 12:24:12;;;;;;;1.73;1.63;;;22.30;44.10;;;;;;5068049;28;20206;-69
2021/12/12 12:27:03;;;;;;;2.25;1.52;;;22.30;44.10;;;;;;5082880;28;20629;-69
2021/12/12 12:29:30;;;;;;;2.03;1.80;;;22.30;44.10;;;;;;5082012;28;20181;-71
2021/12/12 12:33:00;;;;;;;1.60;1.50;;;22.30;44.10;;;;;;5042908;28;20186;-69
2021/12/12 12:36:22;;;;;;;1.55;1.42;;;22.30;44.20;;;;;;5054030;28;20209;-70
2021/12/12 12:39:25;;;;;;;1.60;1.50;;;22.30;44.20;;;;;;5079934;28;20654;-70
2021/12/12 12:42:40;;;;;;;1.55;1.45;;;22.30;44.20;;;;;;5083296;28;20196;-70
2021/12/12 12:45:46;;;;;;;1.40;1.30;;;22.30;44.20;;;;;;5077378;28;20218;-70
2021/12/12 12:48:12;;;;;;;1.67;1.58;;;22.30;44.10;;;;;;5063776;28;20214;-69
2021/12/12 12:50:59;;;;;;;1.77;1.67;;;22.30;44.20;;;;;;5057226;28;20268;-70
2021/12/12 12:53:49;;;;;;;2.22;1.52;;;22.30;44.20;;;;;;5064875;28;20190;-70
2021/12/12 12:57:06;;;;;;;1.67;1.40;;;22.30;44.20;;;;;;5040968;28;20190;-69
2021/12/12 12:59:51;;;;;;;1.50;1.40;;;22.30;44.20;;;;;;5080099;28;20178;-70
2021/12/12 13:03:02;;;;;;;1.55;1.45;;;22.30;44.20;;;;;;5068921;28;20219;-70
2021/12/12 13:06:03;;;;;;;2.25;1.88;;;22.30;44.30;;;;;;5085781;28;20256;-70
2021/12/12 13:09:08;;;;;;;2.00;1.75;;;22.30;44.20;;;;;;5080017;28;20238;-69
2021/12/12 13:12:09;;;;;;;2.17;1.42;;;22.30;44.20;;;;;;5076766;28;20190;-70
2021/12/12 13:14:57;;;;;;;2.13;1.50;;;22.30;44.20;;;;;;5066761;28;20170;-70
2021/12/12 13:18:17;;;;;;;2.10;1.50;;;22.30;44.20;;;;;;5088282;28;20218;-70
2021/12/12 13:21:32;;;;;;;1.80;1.70;;;22.30;44.20;;;;;;5065949;28;20573;-70
2021/12/12 13:24:32;;;;;;;1.63;1.52;;;22.30;44.20;;;;;;5088398;28;20202;-70
2021/12/12 13:27:33;;;;;;;2.03;1.67;;;22.30;44.20;;;;;;5048104;28;20206;-69
2021/12/12 13:30:25;;;;;;;1.92;1.83;;;22.30;44.20;;;;;;5055022;28;20186;-70
2021/12/12 13:33:10;;;;;;;1.63;1.52;;;22.30;44.20;;;;;;5088185;28;20272;-69
2021/12/12 13:35:57;;;;;;;1.58;1.48;;;22.30;44.20;;;;;;5088829;28;20181;-69
2021/12/12 13:38:48;;;;;;;1.50;1.27;;;22.30;44.20;;;;;;5071918;28;20207;-69
2021/12/12 13:41:39;;;;;;;1.60;1.50;;;22.30;44.20;;;;;;5072055;28;20197;-69
2021/12/12 13:44:51;;;;;;;1.63;1.45;;;22.30;44.10;;;;;;5055266;28;20209;-70
2021/12/12 13:47:56;;;;;;;1.65;1.55;;;22.30;44.10;;;;;;5054834;28;20237;-68
2021/12/12 13:50:45;;;;;;;1.50;1.40;;;22.30;44.20;;;;;;5064266;28;20178;-69
2021/12/12 13:53:35;;;;;;;1.73;1.42;;;22.30;44.20;;;;;;5073035;28;20552;-69
2021/12/12 13:56:22;;;;;;;2.38;1.60;;;22.30;44.20;;;;;;5088312;28;20189;-70
2021/12/12 13:59:27;;;;;;;2.50;1.35;;;22.30;44.20;;;;;;5068007;28;20252;-69
2021/12/12 14:02:03;;;;;;;2.83;1.50;;;22.30;44.20;;;;;;5068400;28;20265;-69
2021/12/12 14:04:51;;;;;;;1.65;1.55;;;22.30;44.20;;;;;;5052995;28;20201;-69
2021/12/12 14:07:24;;;;;;;2.05;1.85;;;22.30;44.20;;;;;;5076085;28;20234;-70
2021/12/12 14:09:55;;;;;;;1.70;1.60;;;22.30;44.20;;;;;;5072460;28;20174;-69